sensor_id;sensor_type;location;lat;lon;timestamp;P1;durP1;ratioP1;P2;durP2;ratioP2
26820;SDS011;37186;51.394;5.454;2022-10-26T00:00:43;9.10;;;8.80;;
26820;SDS011;37186;51.394;5.454;2022-10-26T00:03:44;9.13;;;8.83;;
26820;SDS011;37186;51.394;5.454;2022-10-26T00:06:45;9.50;;;9.20;;
26820;SDS011;37186;51.394;5.454;2022-10-26T00:09:45;8.83;;;8.60;;
26820;SDS011;37186;51.394;5.454;2022-10-26T00:12:49;9.50;;;9.20;;
26820;SDS011;37186;51.394;5.454;2022-10-26T00:15:50;9.33;;;9.03;;
26820;SDS011;37186;51.394;5.454;2022-10-26T00:18:50;9.17;;;8.87;;
26820;SDS011;37186;51.394;5.454;2022-10-26T00:21:51;9.10;;;8.80;;
26820;SDS011;37186;51.394;5.454;2022-10-26T00:24:52;9.40;;;9.10;;
26820;SDS011;37186;51.394;5.454;2022-10-26T00:27:52;9.52;;;9.23;;
26820;SDS011;37186;51.394;5.454;2022-10-26T00:30:53;9.57;;;9.27;;
26820;SDS011;37186;51.394;5.454;2022-10-26T00:33:54;9.25;;;8.95;;
26820;SDS011;37186;51.394;5.454;2022-10-26T00:36:55;10.07;;;9.77;;
26820;SDS011;37186;51.394;5.454;2022-10-26T00:39:56;9.63;;;9.32;;
26820;SDS011;37186;51.394;5.454;2022-10-26T00:42:56;10.07;;;9.77;;
26820;SDS011;37186;51.394;5.454;2022-10-26T00:45:57;9.73;;;9.43;;
26820;SDS011;37186;51.394;5.454;2022-10-26T00:49:00;9.80;;;9.50;;
26820;SDS011;37186;51.394;5.454;2022-10-26T00:52:03;9.98;;;9.68;;
26820;SDS011;37186;51.394;5.454;2022-10-26T00:55:05;10.18;;;9.88;;
26820;SDS011;37186;51.394;5.454;2022-10-26T00:58:07;10.00;;;9.70;;
26820;SDS011;37186;51.394;5.454;2022-10-26T01:01:09;10.27;;;9.98;;
26820;SDS011;37186;51.394;5.454;2022-10-26T01:04:11;10.02;;;9.73;;
26820;SDS011;37186;51.394;5.454;2022-10-26T01:07:12;10.65;;;10.35;;
26820;SDS011;37186;51.394;5.454;2022-10-26T01:10:13;10.55;;;10.25;;
26820;SDS011;37186;51.394;5.454;2022-10-26T01:13:14;10.02;;;9.73;;
26820;SDS011;37186;51.394;5.454;2022-10-26T01:16:19;10.13;;;9.82;;
26820;SDS011;37186;51.394;5.454;2022-10-26T01:19:41;10.10;;;9.80;;
26820;SDS011;37186;51.394;5.454;2022-10-26T01:36:15;9.15;;;8.85;;
26820;SDS011;37186;51.394;5.454;2022-10-26T01:39:27;8.65;;;8.45;;
26820;SDS011;37186;51.394;5.454;2022-10-26T01:42:32;9.15;;;8.85;;
26820;SDS011;37186;51.394;5.454;2022-10-26T01:45:36;9.02;;;8.73;;
26820;SDS011;37186;51.394;5.454;2022-10-26T01:48:41;8.43;;;8.23;;
26820;SDS011;37186;51.394;5.454;2022-10-26T01:51:43;9.37;;;9.07;;
26820;SDS011;37186;51.394;5.454;2022-10-26T01:54:47;8.88;;;8.60;;
26820;SDS011;37186;51.394;5.454;2022-10-26T01:57:49;9.23;;;8.93;;
26820;SDS011;37186;51.394;5.454;2022-10-26T02:01:06;9.00;;;8.70;;
26820;SDS011;37186;51.394;5.454;2022-10-26T02:14:48;8.73;;;8.52;;
26820;SDS011;37186;51.394;5.454;2022-10-26T02:17:55;9.47;;;9.17;;
26820;SDS011;37186;51.394;5.454;2022-10-26T02:21:09;9.45;;;9.15;;
26820;SDS011;37186;51.394;5.454;2022-10-26T02:24:14;9.30;;;9.00;;
26820;SDS011;37186;51.394;5.454;2022-10-26T02:27:27;10.02;;;9.73;;
26820;SDS011;37186;51.394;5.454;2022-10-26T02:30:31;9.57;;;9.27;;
26820;SDS011;37186;51.394;5.454;2022-10-26T02:33:36;9.23;;;8.93;;
26820;SDS011;37186;51.394;5.454;2022-10-26T02:36:40;9.10;;;8.80;;
26820;SDS011;37186;51.394;5.454;2022-10-26T02:39:43;8.70;;;8.50;;
26820;SDS011;37186;51.394;5.454;2022-10-26T02:42:47;8.50;;;8.30;;
26820;SDS011;37186;51.394;5.454;2022-10-26T02:45:51;8.38;;;8.18;;
26820;SDS011;37186;51.394;5.454;2022-10-26T02:48:55;8.93;;;8.63;;
26820;SDS011;37186;51.394;5.454;2022-10-26T02:52:04;8.40;;;8.20;;
26820;SDS011;37186;51.394;5.454;2022-10-26T02:58:24;8.75;;;8.55;;
26820;SDS011;37186;51.394;5.454;2022-10-26T03:01:28;9.10;;;8.80;;
26820;SDS011;37186;51.394;5.454;2022-10-26T03:04:30;9.35;;;9.05;;
26820;SDS011;37186;51.394;5.454;2022-10-26T03:07:32;9.75;;;9.45;;
26820;SDS011;37186;51.394;5.454;2022-10-26T03:10:33;9.47;;;9.17;;
26820;SDS011;37186;51.394;5.454;2022-10-26T03:13:44;9.17;;;8.87;;
26820;SDS011;37186;51.394;5.454;2022-10-26T03:16:44;9.75;;;9.45;;
26820;SDS011;37186;51.394;5.454;2022-10-26T03:19:45;9.93;;;9.63;;
26820;SDS011;37186;51.394;5.454;2022-10-26T03:22:46;10.30;;;10.00;;
26820;SDS011;37186;51.394;5.454;2022-10-26T03:25:47;9.83;;;9.53;;
26820;SDS011;37186;51.394;5.454;2022-10-26T03:28:48;9.90;;;9.60;;
26820;SDS011;37186;51.394;5.454;2022-10-26T03:31:48;9.90;;;9.60;;
26820;SDS011;37186;51.394;5.454;2022-10-26T03:34:53;9.40;;;9.10;;
26820;SDS011;37186;51.394;5.454;2022-10-26T03:37:53;9.80;;;9.50;;
26820;SDS011;37186;51.394;5.454;2022-10-26T03:40:54;9.48;;;9.18;;
26820;SDS011;37186;51.394;5.454;2022-10-26T03:43:54;9.50;;;9.20;;
26820;SDS011;37186;51.394;5.454;2022-10-26T03:46:55;9.23;;;8.93;;
26820;SDS011;37186;51.394;5.454;2022-10-26T03:49:55;9.40;;;9.10;;
26820;SDS011;37186;51.394;5.454;2022-10-26T03:52:56;9.40;;;9.10;;
26820;SDS011;37186;51.394;5.454;2022-10-26T03:55:56;9.20;;;8.90;;
26820;SDS011;37186;51.394;5.454;2022-10-26T03:58:57;9.10;;;8.80;;
26820;SDS011;37186;51.394;5.454;2022-10-26T04:01:57;8.73;;;8.53;;
26820;SDS011;37186;51.394;5.454;2022-10-26T04:04:58;9.05;;;8.75;;
26820;SDS011;37186;51.394;5.454;2022-10-26T04:07:59;9.33;;;9.03;;
26820;SDS011;37186;51.394;5.454;2022-10-26T04:11:03;9.10;;;8.80;;
26820;SDS011;37186;51.394;5.454;2022-10-26T04:14:04;9.50;;;9.20;;
26820;SDS011;37186;51.394;5.454;2022-10-26T04:17:04;9.27;;;8.98;;
26820;SDS011;37186;51.394;5.454;2022-10-26T04:20:05;9.53;;;9.23;;
26820;SDS011;37186;51.394;5.454;2022-10-26T04:23:07;9.68;;;9.38;;
26820;SDS011;37186;51.394;5.454;2022-10-26T04:26:10;9.83;;;9.53;;
26820;SDS011;37186;51.394;5.454;2022-10-26T04:29:11;9.93;;;9.63;;
26820;SDS011;37186;51.394;5.454;2022-10-26T04:32:12;10.15;;;9.85;;
26820;SDS011;37186;51.394;5.454;2022-10-26T04:35:13;9.88;;;9.57;;
26820;SDS011;37186;51.394;5.454;2022-10-26T04:38:14;10.60;;;10.30;;
26820;SDS011;37186;51.394;5.454;2022-10-26T04:41:14;10.37;;;10.07;;
26820;SDS011;37186;51.394;5.454;2022-10-26T04:44:15;10.30;;;10.00;;
26820;SDS011;37186;51.394;5.454;2022-10-26T04:47:15;10.23;;;9.93;;
26820;SDS011;37186;51.394;5.454;2022-10-26T04:50:16;10.85;;;10.55;;
26820;SDS011;37186;51.394;5.454;2022-10-26T04:53:16;10.82;;;10.52;;
26820;SDS011;37186;51.394;5.454;2022-10-26T04:56:17;10.82;;;10.52;;
26820;SDS011;37186;51.394;5.454;2022-10-26T04:59:17;10.50;;;10.20;;
26820;SDS011;37186;51.394;5.454;2022-10-26T05:02:18;10.68;;;10.38;;
26820;SDS011;37186;51.394;5.454;2022-10-26T05:05:19;11.15;;;10.85;;
26820;SDS011;37186;51.394;5.454;2022-10-26T05:08:20;11.05;;;10.75;;
26820;SDS011;37186;51.394;5.454;2022-10-26T05:11:20;11.40;;;11.10;;
26820;SDS011;37186;51.394;5.454;2022-10-26T05:14:21;11.18;;;10.88;;
26820;SDS011;37186;51.394;5.454;2022-10-26T05:17:22;11.70;;;11.40;;
26820;SDS011;37186;51.394;5.454;2022-10-26T05:20:22;11.30;;;11.00;;
26820;SDS011;37186;51.394;5.454;2022-10-26T05:23:28;11.23;;;10.93;;
26820;SDS011;37186;51.394;5.454;2022-10-26T05:26:29;11.43;;;11.13;;
26820;SDS011;37186;51.394;5.454;2022-10-26T05:29:29;11.52;;;11.23;;
26820;SDS011;37186;51.394;5.454;2022-10-26T05:32:30;11.25;;;10.95;;
26820;SDS011;37186;51.394;5.454;2022-10-26T05:35:31;11.40;;;11.10;;
26820;SDS011;37186;51.394;5.454;2022-10-26T05:38:31;11.40;;;11.10;;
26820;SDS011;37186;51.394;5.454;2022-10-26T05:41:32;11.20;;;10.90;;
26820;SDS011;37186;51.394;5.454;2022-10-26T05:44:32;11.73;;;11.43;;
26820;SDS011;37186;51.394;5.454;2022-10-26T05:47:36;12.00;;;11.60;;
26820;SDS011;37186;51.394;5.454;2022-10-26T05:50:38;11.70;;;11.40;;
26820;SDS011;37186;51.394;5.454;2022-10-26T05:53:38;12.52;;;12.13;;
26820;SDS011;37186;51.394;5.454;2022-10-26T05:56:39;12.00;;;11.60;;
26820;SDS011;37186;51.394;5.454;2022-10-26T05:59:40;11.35;;;11.05;;
26820;SDS011;37186;51.394;5.454;2022-10-26T06:02:48;11.77;;;11.48;;
26820;SDS011;37186;51.394;5.454;2022-10-26T06:06:00;11.98;;;11.57;;
26820;SDS011;37186;51.394;5.454;2022-10-26T06:09:00;11.75;;;11.45;;
26820;SDS011;37186;51.394;5.454;2022-10-26T06:12:01;12.35;;;11.95;;
26820;SDS011;37186;51.394;5.454;2022-10-26T06:15:02;12.25;;;11.85;;
26820;SDS011;37186;51.394;5.454;2022-10-26T06:18:09;12.32;;;11.93;;
26820;SDS011;37186;51.394;5.454;2022-10-26T06:31:23;11.80;;;11.50;;
26820;SDS011;37186;51.394;5.454;2022-10-26T06:34:24;12.15;;;11.77;;
26820;SDS011;37186;51.394;5.454;2022-10-26T06:37:28;12.38;;;11.98;;
26820;SDS011;37186;51.394;5.454;2022-10-26T06:40:31;12.52;;;12.13;;
26820;SDS011;37186;51.394;5.454;2022-10-26T06:43:34;12.57;;;12.18;;
26820;SDS011;37186;51.394;5.454;2022-10-26T06:46:36;13.13;;;12.73;;
26820;SDS011;37186;51.394;5.454;2022-10-26T06:49:53;12.25;;;11.85;;
26820;SDS011;37186;51.394;5.454;2022-10-26T06:56:15;12.40;;;12.00;;
26820;SDS011;37186;51.394;5.454;2022-10-26T06:59:38;12.52;;;12.13;;
26820;SDS011;37186;51.394;5.454;2022-10-26T07:02:43;12.52;;;12.13;;
26820;SDS011;37186;51.394;5.454;2022-10-26T07:05:44;12.35;;;11.95;;
26820;SDS011;37186;51.394;5.454;2022-10-26T07:08:45;12.90;;;12.50;;
26820;SDS011;37186;51.394;5.454;2022-10-26T07:11:45;12.87;;;12.47;;
26820;SDS011;37186;51.394;5.454;2022-10-26T07:14:46;12.48;;;12.07;;
26820;SDS011;37186;51.394;5.454;2022-10-26T07:17:47;12.13;;;11.73;;
26820;SDS011;37186;51.394;5.454;2022-10-26T07:20:48;12.50;;;12.10;;
26820;SDS011;37186;51.394;5.454;2022-10-26T07:23:49;12.40;;;12.00;;
26820;SDS011;37186;51.394;5.454;2022-10-26T07:26:54;12.93;;;12.52;;
26820;SDS011;37186;51.394;5.454;2022-10-26T07:29:55;12.93;;;12.52;;
26820;SDS011;37186;51.394;5.454;2022-10-26T07:33:09;12.93;;;12.52;;
26820;SDS011;37186;51.394;5.454;2022-10-26T07:36:11;12.25;;;11.85;;
26820;SDS011;37186;51.394;5.454;2022-10-26T07:39:12;12.75;;;12.35;;
26820;SDS011;37186;51.394;5.454;2022-10-26T07:42:13;12.95;;;12.55;;
26820;SDS011;37186;51.394;5.454;2022-10-26T07:45:14;13.07;;;12.68;;
26820;SDS011;37186;51.394;5.454;2022-10-26T07:48:14;12.93;;;12.52;;
26820;SDS011;37186;51.394;5.454;2022-10-26T07:51:15;13.25;;;12.85;;
26820;SDS011;37186;51.394;5.454;2022-10-26T07:54:15;12.80;;;12.40;;
26820;SDS011;37186;51.394;5.454;2022-10-26T07:57:16;13.27;;;12.88;;
26820;SDS011;37186;51.394;5.454;2022-10-26T08:00:16;13.55;;;13.15;;
26820;SDS011;37186;51.394;5.454;2022-10-26T08:03:17;13.73;;;13.33;;
26820;SDS011;37186;51.394;5.454;2022-10-26T08:06:19;14.43;;;14.02;;
26820;SDS011;37186;51.394;5.454;2022-10-26T08:09:22;13.20;;;12.80;;
26820;SDS011;37186;51.394;5.454;2022-10-26T08:12:23;15.13;;;14.63;;
26820;SDS011;37186;51.394;5.454;2022-10-26T08:15:23;13.93;;;13.52;;
26820;SDS011;37186;51.394;5.454;2022-10-26T08:18:24;13.75;;;13.35;;
26820;SDS011;37186;51.394;5.454;2022-10-26T08:21:25;14.00;;;13.60;;
26820;SDS011;37186;51.394;5.454;2022-10-26T08:24:25;13.52;;;13.13;;
26820;SDS011;37186;51.394;5.454;2022-10-26T08:27:26;13.63;;;13.23;;
26820;SDS011;37186;51.394;5.454;2022-10-26T08:30:28;12.73;;;12.32;;
26820;SDS011;37186;51.394;5.454;2022-10-26T08:33:29;13.23;;;12.82;;
26820;SDS011;37186;51.394;5.454;2022-10-26T08:36:30;13.32;;;12.93;;
26820;SDS011;37186;51.394;5.454;2022-10-26T08:39:30;12.82;;;12.43;;
26820;SDS011;37186;51.394;5.454;2022-10-26T08:42:37;11.48;;;11.18;;
26820;SDS011;37186;51.394;5.454;2022-10-26T08:45:51;12.02;;;11.65;;
26820;SDS011;37186;51.394;5.454;2022-10-26T08:49:17;11.38;;;11.07;;
26820;SDS011;37186;51.394;5.454;2022-10-26T08:52:25;11.40;;;11.10;;
26820;SDS011;37186;51.394;5.454;2022-10-26T08:55:42;12.20;;;11.80;;
26820;SDS011;37186;51.394;5.454;2022-10-26T09:01:57;11.07;;;10.77;;
26820;SDS011;37186;51.394;5.454;2022-10-26T09:05:00;11.15;;;10.85;;
26820;SDS011;37186;51.394;5.454;2022-10-26T09:21:47;13.02;;;12.63;;
26820;SDS011;37186;51.394;5.454;2022-10-26T09:25:17;13.60;;;13.20;;
26820;SDS011;37186;51.394;5.454;2022-10-26T09:28:20;11.88;;;11.52;;
26820;SDS011;37186;51.394;5.454;2022-10-26T09:31:20;12.05;;;11.68;;
26820;SDS011;37186;51.394;5.454;2022-10-26T09:34:24;11.85;;;11.50;;
26820;SDS011;37186;51.394;5.454;2022-10-26T09:37:31;11.25;;;10.95;;
26820;SDS011;37186;51.394;5.454;2022-10-26T09:40:39;12.07;;;11.70;;
26820;SDS011;37186;51.394;5.454;2022-10-26T09:44:17;12.32;;;11.93;;
26820;SDS011;37186;51.394;5.454;2022-10-26T09:47:28;11.20;;;10.90;;
26820;SDS011;37186;51.394;5.454;2022-10-26T09:50:35;10.25;;;9.95;;
26820;SDS011;37186;51.394;5.454;2022-10-26T09:53:38;9.82;;;9.52;;
26820;SDS011;37186;51.394;5.454;2022-10-26T09:56:38;9.88;;;9.57;;
26820;SDS011;37186;51.394;5.454;2022-10-26T09:59:40;10.63;;;10.32;;
26820;SDS011;37186;51.394;5.454;2022-10-26T10:02:43;10.07;;;9.77;;
26820;SDS011;37186;51.394;5.454;2022-10-26T10:05:44;10.40;;;10.10;;
26820;SDS011;37186;51.394;5.454;2022-10-26T10:12:15;11.05;;;10.75;;
26820;SDS011;37186;51.394;5.454;2022-10-26T10:15:22;12.43;;;12.02;;
26820;SDS011;37186;51.394;5.454;2022-10-26T10:18:24;12.27;;;11.88;;
26820;SDS011;37186;51.394;5.454;2022-10-26T10:21:43;12.52;;;12.13;;
26820;SDS011;37186;51.394;5.454;2022-10-26T10:24:57;12.05;;;11.68;;
26820;SDS011;37186;51.394;5.454;2022-10-26T10:27:58;11.23;;;10.93;;
26820;SDS011;37186;51.394;5.454;2022-10-26T10:31:00;10.75;;;10.45;;
26820;SDS011;37186;51.394;5.454;2022-10-26T10:34:14;10.82;;;10.52;;
26820;SDS011;37186;51.394;5.454;2022-10-26T10:37:21;10.20;;;9.90;;
26820;SDS011;37186;51.394;5.454;2022-10-26T10:40:30;10.23;;;9.93;;
26820;SDS011;37186;51.394;5.454;2022-10-26T10:43:31;9.90;;;9.60;;
26820;SDS011;37186;51.394;5.454;2022-10-26T10:46:32;9.45;;;9.15;;
26820;SDS011;37186;51.394;5.454;2022-10-26T10:49:33;9.45;;;9.15;;
26820;SDS011;37186;51.394;5.454;2022-10-26T10:52:34;9.20;;;8.90;;
26820;SDS011;37186;51.394;5.454;2022-10-26T10:55:35;8.68;;;8.45;;
26820;SDS011;37186;51.394;5.454;2022-10-26T10:58:40;9.07;;;8.77;;
26820;SDS011;37186;51.394;5.454;2022-10-26T11:01:49;9.10;;;8.80;;
26820;SDS011;37186;51.394;5.454;2022-10-26T11:08:26;8.63;;;8.43;;
26820;SDS011;37186;51.394;5.454;2022-10-26T11:11:47;8.35;;;8.15;;
26820;SDS011;37186;51.394;5.454;2022-10-26T11:15:00;8.23;;;8.02;;
26820;SDS011;37186;51.394;5.454;2022-10-26T11:18:13;8.60;;;8.40;;
26820;SDS011;37186;51.394;5.454;2022-10-26T11:21:24;8.23;;;8.02;;
26820;SDS011;37186;51.394;5.454;2022-10-26T11:24:28;7.95;;;7.75;;
26820;SDS011;37186;51.394;5.454;2022-10-26T11:27:37;8.15;;;7.95;;
26820;SDS011;37186;51.394;5.454;2022-10-26T11:30:46;8.07;;;7.88;;
26820;SDS011;37186;51.394;5.454;2022-10-26T11:33:59;8.57;;;8.38;;
26820;SDS011;37186;51.394;5.454;2022-10-26T11:37:16;8.32;;;8.13;;
26820;SDS011;37186;51.394;5.454;2022-10-26T11:43:29;8.30;;;8.10;;
26820;SDS011;37186;51.394;5.454;2022-10-26T11:46:37;8.98;;;8.73;;
26820;SDS011;37186;51.394;5.454;2022-10-26T11:49:52;10.27;;;9.98;;
26820;SDS011;37186;51.394;5.454;2022-10-26T11:52:57;10.13;;;9.82;;
26820;SDS011;37186;51.394;5.454;2022-10-26T11:56:01;11.43;;;11.10;;
26820;SDS011;37186;51.394;5.454;2022-10-26T11:59:04;11.65;;;11.35;;
26820;SDS011;37186;51.394;5.454;2022-10-26T12:02:17;12.20;;;11.80;;
26820;SDS011;37186;51.394;5.454;2022-10-26T12:05:32;13.70;;;13.30;;
26820;SDS011;37186;51.394;5.454;2022-10-26T12:08:42;14.05;;;13.65;;
26820;SDS011;37186;51.394;5.454;2022-10-26T12:11:57;15.40;;;14.90;;
26820;SDS011;37186;51.394;5.454;2022-10-26T12:15:08;16.55;;;16.05;;
26820;SDS011;37186;51.394;5.454;2022-10-26T12:21:40;15.77;;;15.27;;
26820;SDS011;37186;51.394;5.454;2022-10-26T12:24:43;15.93;;;15.43;;
26820;SDS011;37186;51.394;5.454;2022-10-26T12:30:45;16.75;;;16.25;;
26820;SDS011;37186;51.394;5.454;2022-10-26T12:33:49;15.90;;;15.40;;
26820;SDS011;37186;51.394;5.454;2022-10-26T12:39:53;15.70;;;15.20;;
26820;SDS011;37186;51.394;5.454;2022-10-26T12:42:54;16.38;;;15.88;;
26820;SDS011;37186;51.394;5.454;2022-10-26T12:49:56;16.73;;;16.23;;
26820;SDS011;37186;51.394;5.454;2022-10-26T12:52:56;15.68;;;15.18;;
26820;SDS011;37186;51.394;5.454;2022-10-26T12:56:10;16.35;;;15.85;;
26820;SDS011;37186;51.394;5.454;2022-10-26T13:00:04;15.52;;;15.02;;
26820;SDS011;37186;51.394;5.454;2022-10-26T13:03:05;14.93;;;14.48;;
26820;SDS011;37186;51.394;5.454;2022-10-26T13:09:51;15.48;;;14.98;;
26820;SDS011;37186;51.394;5.454;2022-10-26T13:13:01;15.38;;;14.90;;
26820;SDS011;37186;51.394;5.454;2022-10-26T13:16:04;15.07;;;14.63;;
26820;SDS011;37186;51.394;5.454;2022-10-26T13:19:20;16.05;;;15.55;;
26820;SDS011;37186;51.394;5.454;2022-10-26T13:22:26;14.95;;;14.50;;
26820;SDS011;37186;51.394;5.454;2022-10-26T13:25:27;16.50;;;16.00;;
26820;SDS011;37186;51.394;5.454;2022-10-26T13:34:30;16.10;;;15.60;;
26820;SDS011;37186;51.394;5.454;2022-10-26T13:37:32;15.88;;;15.38;;
26820;SDS011;37186;51.394;5.454;2022-10-26T13:40:34;16.55;;;16.05;;
26820;SDS011;37186;51.394;5.454;2022-10-26T13:43:37;17.23;;;16.70;;
26820;SDS011;37186;51.394;5.454;2022-10-26T13:46:38;16.73;;;16.20;;
26820;SDS011;37186;51.394;5.454;2022-10-26T13:49:41;17.60;;;17.05;;
26820;SDS011;37186;51.394;5.454;2022-10-26T13:52:46;18.25;;;17.67;;
26820;SDS011;37186;51.394;5.454;2022-10-26T13:58:55;18.77;;;18.17;;
26820;SDS011;37186;51.394;5.454;2022-10-26T14:02:05;19.33;;;18.73;;
26820;SDS011;37186;51.394;5.454;2022-10-26T14:05:10;18.55;;;17.95;;
26820;SDS011;37186;51.394;5.454;2022-10-26T14:08:14;19.58;;;18.95;;
26820;SDS011;37186;51.394;5.454;2022-10-26T14:11:18;17.27;;;16.75;;
26820;SDS011;37186;51.394;5.454;2022-10-26T14:14:25;19.25;;;18.65;;
26820;SDS011;37186;51.394;5.454;2022-10-26T14:17:27;18.75;;;18.15;;
26820;SDS011;37186;51.394;5.454;2022-10-26T14:20:28;18.55;;;17.95;;
26820;SDS011;37186;51.394;5.454;2022-10-26T14:23:34;18.80;;;18.20;;
26820;SDS011;37186;51.394;5.454;2022-10-26T14:26:37;19.05;;;18.45;;
26820;SDS011;37186;51.394;5.454;2022-10-26T14:29:40;19.83;;;19.17;;
26820;SDS011;37186;51.394;5.454;2022-10-26T14:32:40;20.75;;;20.08;;
26820;SDS011;37186;51.394;5.454;2022-10-26T14:35:41;20.15;;;19.50;;
26820;SDS011;37186;51.394;5.454;2022-10-26T14:38:42;19.10;;;18.50;;
26820;SDS011;37186;51.394;5.454;2022-10-26T14:41:44;19.48;;;18.88;;
26820;SDS011;37186;51.394;5.454;2022-10-26T14:44:45;18.60;;;18.00;;
26820;SDS011;37186;51.394;5.454;2022-10-26T14:47:47;18.13;;;17.55;;
26820;SDS011;37186;51.394;5.454;2022-10-26T14:54:18;17.58;;;17.02;;
26820;SDS011;37186;51.394;5.454;2022-10-26T14:57:32;17.70;;;17.13;;
26820;SDS011;37186;51.394;5.454;2022-10-26T15:00:36;17.92;;;17.35;;
26820;SDS011;37186;51.394;5.454;2022-10-26T15:03:36;18.27;;;17.70;;
26820;SDS011;37186;51.394;5.454;2022-10-26T15:06:41;18.92;;;18.33;;
26820;SDS011;37186;51.394;5.454;2022-10-26T15:09:46;17.20;;;16.65;;
26820;SDS011;37186;51.394;5.454;2022-10-26T15:12:48;18.73;;;18.13;;
26820;SDS011;37186;51.394;5.454;2022-10-26T15:15:48;18.23;;;17.65;;
26820;SDS011;37186;51.394;5.454;2022-10-26T15:18:54;17.25;;;16.70;;
26820;SDS011;37186;51.394;5.454;2022-10-26T15:21:58;18.83;;;18.23;;
26820;SDS011;37186;51.394;5.454;2022-10-26T15:25:00;17.30;;;16.75;;
26820;SDS011;37186;51.394;5.454;2022-10-26T15:28:37;17.48;;;16.92;;
26820;SDS011;37186;51.394;5.454;2022-10-26T15:31:35;15.00;;;14.52;;
26820;SDS011;37186;51.394;5.454;2022-10-26T15:34:36;15.98;;;15.48;;
26820;SDS011;37186;51.394;5.454;2022-10-26T15:37:37;14.93;;;14.48;;
26820;SDS011;37186;51.394;5.454;2022-10-26T15:40:41;15.73;;;15.23;;
26820;SDS011;37186;51.394;5.454;2022-10-26T15:43:42;15.43;;;14.93;;
26820;SDS011;37186;51.394;5.454;2022-10-26T15:46:46;13.95;;;13.55;;
26820;SDS011;37186;51.394;5.454;2022-10-26T15:49:48;13.65;;;13.25;;
26820;SDS011;37186;51.394;5.454;2022-10-26T15:52:48;13.60;;;13.20;;
26820;SDS011;37186;51.394;5.454;2022-10-26T15:55:54;13.68;;;13.27;;
26820;SDS011;37186;51.394;5.454;2022-10-26T15:58:58;13.13;;;12.73;;
26820;SDS011;37186;51.394;5.454;2022-10-26T16:01:58;13.35;;;12.95;;
26820;SDS011;37186;51.394;5.454;2022-10-26T16:04:59;13.00;;;12.60;;
26820;SDS011;37186;51.394;5.454;2022-10-26T16:07:59;13.35;;;12.95;;
26820;SDS011;37186;51.394;5.454;2022-10-26T16:11:00;11.98;;;11.63;;
26820;SDS011;37186;51.394;5.454;2022-10-26T16:14:00;13.38;;;12.98;;
26820;SDS011;37186;51.394;5.454;2022-10-26T16:17:01;13.25;;;12.85;;
26820;SDS011;37186;51.394;5.454;2022-10-26T16:20:02;13.55;;;13.15;;
26820;SDS011;37186;51.394;5.454;2022-10-26T16:23:03;13.70;;;13.30;;
26820;SDS011;37186;51.394;5.454;2022-10-26T16:26:06;12.70;;;12.30;;
26820;SDS011;37186;51.394;5.454;2022-10-26T16:29:08;12.38;;;12.00;;
26820;SDS011;37186;51.394;5.454;2022-10-26T16:32:08;12.90;;;12.50;;
26820;SDS011;37186;51.394;5.454;2022-10-26T16:35:09;12.35;;;11.98;;
26820;SDS011;37186;51.394;5.454;2022-10-26T16:38:11;11.45;;;11.13;;
26820;SDS011;37186;51.394;5.454;2022-10-26T16:41:12;11.50;;;11.18;;
26820;SDS011;37186;51.394;5.454;2022-10-26T16:44:15;11.80;;;11.45;;
26820;SDS011;37186;51.394;5.454;2022-10-26T16:47:16;12.40;;;12.00;;
26820;SDS011;37186;51.394;5.454;2022-10-26T16:50:17;12.00;;;11.63;;
26820;SDS011;37186;51.394;5.454;2022-10-26T16:53:20;11.73;;;11.38;;
26820;SDS011;37186;51.394;5.454;2022-10-26T16:56:24;11.18;;;10.88;;
26820;SDS011;37186;51.394;5.454;2022-10-26T16:59:27;10.98;;;10.65;;
26820;SDS011;37186;51.394;5.454;2022-10-26T17:02:27;10.30;;;10.00;;
26820;SDS011;37186;51.394;5.454;2022-10-26T17:05:28;10.48;;;10.18;;
26820;SDS011;37186;51.394;5.454;2022-10-26T17:08:29;9.40;;;9.10;;
26820;SDS011;37186;51.394;5.454;2022-10-26T17:11:31;9.73;;;9.43;;
26820;SDS011;37186;51.394;5.454;2022-10-26T17:14:32;9.05;;;8.77;;
26820;SDS011;37186;51.394;5.454;2022-10-26T17:17:32;8.85;;;8.60;;
26820;SDS011;37186;51.394;5.454;2022-10-26T17:20:33;8.40;;;8.20;;
26820;SDS011;37186;51.394;5.454;2022-10-26T17:23:33;8.30;;;8.10;;
26820;SDS011;37186;51.394;5.454;2022-10-26T17:26:34;8.02;;;7.82;;
26820;SDS011;37186;51.394;5.454;2022-10-26T17:29:34;8.38;;;8.18;;
26820;SDS011;37186;51.394;5.454;2022-10-26T17:32:35;7.85;;;7.65;;
26820;SDS011;37186;51.394;5.454;2022-10-26T17:35:36;7.88;;;7.68;;
26820;SDS011;37186;51.394;5.454;2022-10-26T17:38:38;7.82;;;7.63;;
26820;SDS011;37186;51.394;5.454;2022-10-26T17:41:39;8.30;;;8.10;;
26820;SDS011;37186;51.394;5.454;2022-10-26T17:44:40;7.85;;;7.65;;
26820;SDS011;37186;51.394;5.454;2022-10-26T17:47:40;7.90;;;7.70;;
26820;SDS011;37186;51.394;5.454;2022-10-26T17:50:41;7.72;;;7.53;;
26820;SDS011;37186;51.394;5.454;2022-10-26T17:53:41;8.00;;;7.80;;
26820;SDS011;37186;51.394;5.454;2022-10-26T17:56:45;7.47;;;7.28;;
26820;SDS011;37186;51.394;5.454;2022-10-26T17:59:46;7.85;;;7.65;;
26820;SDS011;37186;51.394;5.454;2022-10-26T18:02:46;8.07;;;7.88;;
26820;SDS011;37186;51.394;5.454;2022-10-26T18:05:48;7.53;;;7.32;;
26820;SDS011;37186;51.394;5.454;2022-10-26T18:08:49;7.60;;;7.40;;
26820;SDS011;37186;51.394;5.454;2022-10-26T18:11:50;7.75;;;7.55;;
26820;SDS011;37186;51.394;5.454;2022-10-26T18:14:50;7.47;;;7.28;;
26820;SDS011;37186;51.394;5.454;2022-10-26T18:17:51;7.70;;;7.50;;
26820;SDS011;37186;51.394;5.454;2022-10-26T18:20:51;7.30;;;7.10;;
26820;SDS011;37186;51.394;5.454;2022-10-26T18:23:58;7.63;;;7.43;;
26820;SDS011;37186;51.394;5.454;2022-10-26T18:26:59;7.30;;;7.10;;
26820;SDS011;37186;51.394;5.454;2022-10-26T18:29:59;7.30;;;7.10;;
26820;SDS011;37186;51.394;5.454;2022-10-26T18:33:00;6.82;;;6.63;;
26820;SDS011;37186;51.394;5.454;2022-10-26T18:36:04;7.20;;;7.00;;
26820;SDS011;37186;51.394;5.454;2022-10-26T18:39:06;7.07;;;6.88;;
26820;SDS011;37186;51.394;5.454;2022-10-26T18:42:07;7.47;;;7.28;;
26820;SDS011;37186;51.394;5.454;2022-10-26T18:45:08;7.28;;;7.07;;
26820;SDS011;37186;51.394;5.454;2022-10-26T18:48:08;7.38;;;7.18;;
26820;SDS011;37186;51.394;5.454;2022-10-26T18:51:13;7.40;;;7.20;;
26820;SDS011;37186;51.394;5.454;2022-10-26T18:54:15;7.03;;;6.82;;
26820;SDS011;37186;51.394;5.454;2022-10-26T18:57:15;7.40;;;7.20;;
26820;SDS011;37186;51.394;5.454;2022-10-26T19:00:17;7.32;;;7.13;;
26820;SDS011;37186;51.394;5.454;2022-10-26T19:03:18;6.97;;;6.78;;
26820;SDS011;37186;51.394;5.454;2022-10-26T19:06:19;6.95;;;6.75;;
26820;SDS011;37186;51.394;5.454;2022-10-26T19:09:22;7.25;;;7.05;;
26820;SDS011;37186;51.394;5.454;2022-10-26T19:12:24;7.30;;;7.10;;
26820;SDS011;37186;51.394;5.454;2022-10-26T19:15:24;7.25;;;7.05;;
26820;SDS011;37186;51.394;5.454;2022-10-26T19:18:25;7.40;;;7.20;;
26820;SDS011;37186;51.394;5.454;2022-10-26T19:21:26;7.45;;;7.25;;
26820;SDS011;37186;51.394;5.454;2022-10-26T19:24:28;7.65;;;7.45;;
26820;SDS011;37186;51.394;5.454;2022-10-26T19:27:28;7.68;;;7.47;;
26820;SDS011;37186;51.394;5.454;2022-10-26T19:30:29;7.53;;;7.32;;
26820;SDS011;37186;51.394;5.454;2022-10-26T19:33:29;7.50;;;7.30;;
26820;SDS011;37186;51.394;5.454;2022-10-26T19:36:30;7.30;;;7.10;;
26820;SDS011;37186;51.394;5.454;2022-10-26T19:39:31;7.00;;;6.80;;
26820;SDS011;37186;51.394;5.454;2022-10-26T19:42:31;7.50;;;7.30;;
26820;SDS011;37186;51.394;5.454;2022-10-26T19:45:32;7.38;;;7.18;;